sensor_id;sensor_type;location;lat;lon;timestamp;temperature;humidity
57753;DHT22;43583;53.132;6.574;2022-12-20T00:01:47;8.70;99.90
57753;DHT22;43583;53.132;6.574;2022-12-20T00:04:12;8.70;99.90
57753;DHT22;43583;53.132;6.574;2022-12-20T00:06:38;8.70;99.90
57753;DHT22;43583;53.132;6.574;2022-12-20T00:09:07;8.80;99.90
57753;DHT22;43583;53.132;6.574;2022-12-20T00:11:33;8.70;99.90
57753;DHT22;43583;53.132;6.574;2022-12-20T00:13:59;8.70;99.90
57753;DHT22;43583;53.132;6.574;2022-12-20T00:16:26;8.70;99.90
57753;DHT22;43583;53.132;6.574;2022-12-20T00:18:56;8.70;99.90
57753;DHT22;43583;53.132;6.574;2022-12-20T00:21:22;8.70;99.90
57753;DHT22;43583;53.132;6.574;2022-12-20T00:23:48;8.70;99.90
57753;DHT22;43583;53.132;6.574;2022-12-20T00:26:16;8.70;99.90
57753;DHT22;43583;53.132;6.574;2022-12-20T00:28:42;8.70;99.90
57753;DHT22;43583;53.132;6.574;2022-12-20T00:31:11;8.70;99.90
57753;DHT22;43583;53.132;6.574;2022-12-20T00:33:38;8.60;99.90
57753;DHT22;43583;53.132;6.574;2022-12-20T00:36:04;8.70;99.90
57753;DHT22;43583;53.132;6.574;2022-12-20T00:38:30;8.60;99.90
57753;DHT22;43583;53.132;6.574;2022-12-20T00:41:07;8.60;99.90
57753;DHT22;43583;53.132;6.574;2022-12-20T00:43:33;8.60;99.90
57753;DHT22;43583;53.132;6.574;2022-12-20T00:45:59;8.60;99.90
57753;DHT22;43583;53.132;6.574;2022-12-20T00:48:26;8.60;99.90
57753;DHT22;43583;53.132;6.574;2022-12-20T00:50:52;8.60;99.90
57753;DHT22;43583;53.132;6.574;2022-12-20T00:53:17;8.60;99.90
57753;DHT22;43583;53.132;6.574;2022-12-20T00:55:44;8.60;99.90
57753;DHT22;43583;53.132;6.574;2022-12-20T00:58:11;8.60;99.90
57753;DHT22;43583;53.132;6.574;2022-12-20T01:00:38;8.60;99.90
57753;DHT22;43583;53.132;6.574;2022-12-20T01:03:04;8.70;99.90
57753;DHT22;43583;53.132;6.574;2022-12-20T01:05:30;8.70;99.90
57753;DHT22;43583;53.132;6.574;2022-12-20T01:07:56;8.70;99.90
57753;DHT22;43583;53.132;6.574;2022-12-20T01:10:22;8.70;99.90
57753;DHT22;43583;53.132;6.574;2022-12-20T01:12:48;8.70;99.90
57753;DHT22;43583;53.132;6.574;2022-12-20T01:15:13;8.70;99.90
57753;DHT22;43583;53.132;6.574;2022-12-20T01:17:40;8.70;99.90
57753;DHT22;43583;53.132;6.574;2022-12-20T01:20:06;8.80;99.90
57753;DHT22;43583;53.132;6.574;2022-12-20T01:22:32;8.80;99.90
57753;DHT22;43583;53.132;6.574;2022-12-20T01:24:57;8.80;99.90
57753;DHT22;43583;53.132;6.574;2022-12-20T01:27:23;8.80;99.90
57753;DHT22;43583;53.132;6.574;2022-12-20T01:29:48;8.80;99.90
57753;DHT22;43583;53.132;6.574;2022-12-20T01:32:14;8.80;99.90
57753;DHT22;43583;53.132;6.574;2022-12-20T01:34:39;8.70;99.90
57753;DHT22;43583;53.132;6.574;2022-12-20T01:37:05;8.70;99.90
57753;DHT22;43583;53.132;6.574;2022-12-20T01:39:31;8.70;99.90
57753;DHT22;43583;53.132;6.574;2022-12-20T01:41:56;8.70;99.90
57753;DHT22;43583;53.132;6.574;2022-12-20T01:46:48;8.70;99.90
57753;DHT22;43583;53.132;6.574;2022-12-20T01:49:25;8.70;99.90
57753;DHT22;43583;53.132;6.574;2022-12-20T01:52:06;8.70;99.90
57753;DHT22;43583;53.132;6.574;2022-12-20T01:54:40;8.70;99.90
57753;DHT22;43583;53.132;6.574;2022-12-20T01:57:44;8.70;99.90
57753;DHT22;43583;53.132;6.574;2022-12-20T02:00:02;8.70;99.90
57753;DHT22;43583;53.132;6.574;2022-12-20T02:02:29;8.70;99.90
57753;DHT22;43583;53.132;6.574;2022-12-20T02:04:56;8.70;99.90
57753;DHT22;43583;53.132;6.574;2022-12-20T02:07:24;8.70;99.90
57753;DHT22;43583;53.132;6.574;2022-12-20T02:09:52;8.70;99.90
57753;DHT22;43583;53.132;6.574;2022-12-20T02:12:23;8.70;99.90
57753;DHT22;43583;53.132;6.574;2022-12-20T02:15:21;8.70;99.90
57753;DHT22;43583;53.132;6.574;2022-12-20T02:18:21;8.70;99.90
57753;DHT22;43583;53.132;6.574;2022-12-20T02:24:09;8.80;99.90
57753;DHT22;43583;53.132;6.574;2022-12-20T02:30:00;8.80;99.90
57753;DHT22;43583;53.132;6.574;2022-12-20T02:32:30;8.80;99.90
57753;DHT22;43583;53.132;6.574;2022-12-20T02:34:58;8.80;99.90
57753;DHT22;43583;53.132;6.574;2022-12-20T02:37:23;8.80;99.90
57753;DHT22;43583;53.132;6.574;2022-12-20T02:39:49;8.80;99.90
57753;DHT22;43583;53.132;6.574;2022-12-20T02:42:19;8.80;99.90
57753;DHT22;43583;53.132;6.574;2022-12-20T02:44:51;8.80;99.90
57753;DHT22;43583;53.132;6.574;2022-12-20T02:47:59;8.80;99.90
57753;DHT22;43583;53.132;6.574;2022-12-20T02:50:31;8.90;99.90
57753;DHT22;43583;53.132;6.574;2022-12-20T02:52:59;8.90;99.90
57753;DHT22;43583;53.132;6.574;2022-12-20T02:58:22;8.90;99.90
57753;DHT22;43583;53.132;6.574;2022-12-20T03:00:50;8.90;99.90
57753;DHT22;43583;53.132;6.574;2022-12-20T03:03:16;8.90;99.90
57753;DHT22;43583;53.132;6.574;2022-12-20T03:05:49;8.90;99.90
57753;DHT22;43583;53.132;6.574;2022-12-20T03:08:15;8.90;99.90
57753;DHT22;43583;53.132;6.574;2022-12-20T03:10:41;9.00;99.90
57753;DHT22;43583;53.132;6.574;2022-12-20T03:13:07;9.00;99.90
57753;DHT22;43583;53.132;6.574;2022-12-20T03:15:32;8.90;99.90
57753;DHT22;43583;53.132;6.574;2022-12-20T03:17:58;8.90;99.90
57753;DHT22;43583;53.132;6.574;2022-12-20T03:20:24;8.90;99.90
57753;DHT22;43583;53.132;6.574;2022-12-20T03:22:49;8.90;99.90
57753;DHT22;43583;53.132;6.574;2022-12-20T03:25:16;8.90;99.90
57753;DHT22;43583;53.132;6.574;2022-12-20T03:27:41;8.90;99.90
57753;DHT22;43583;53.132;6.574;2022-12-20T03:30:07;8.90;99.90
57753;DHT22;43583;53.132;6.574;2022-12-20T03:32:33;8.90;99.90
57753;DHT22;43583;53.132;6.574;2022-12-20T03:34:59;8.90;99.90
57753;DHT22;43583;53.132;6.574;2022-12-20T03:37:24;8.90;99.90
57753;DHT22;43583;53.132;6.574;2022-12-20T03:39:50;8.90;99.90
57753;DHT22;43583;53.132;6.574;2022-12-20T03:42:15;8.90;99.90
57753;DHT22;43583;53.132;6.574;2022-12-20T03:44:41;8.90;99.90
57753;DHT22;43583;53.132;6.574;2022-12-20T03:47:07;8.90;99.90
57753;DHT22;43583;53.132;6.574;2022-12-20T03:49:32;9.00;99.90
57753;DHT22;43583;53.132;6.574;2022-12-20T03:51:58;9.00;99.90
57753;DHT22;43583;53.132;6.574;2022-12-20T03:54:23;8.90;99.90
57753;DHT22;43583;53.132;6.574;2022-12-20T03:56:49;8.90;99.90
57753;DHT22;43583;53.132;6.574;2022-12-20T03:59:15;8.90;99.90
57753;DHT22;43583;53.132;6.574;2022-12-20T04:01:40;9.00;99.90
57753;DHT22;43583;53.132;6.574;2022-12-20T04:04:08;9.00;99.90
57753;DHT22;43583;53.132;6.574;2022-12-20T04:06:34;9.00;99.90
57753;DHT22;43583;53.132;6.574;2022-12-20T04:08:59;9.00;99.90
57753;DHT22;43583;53.132;6.574;2022-12-20T04:11:25;9.00;99.90
57753;DHT22;43583;53.132;6.574;2022-12-20T04:13:52;9.00;99.90
57753;DHT22;43583;53.132;6.574;2022-12-20T04:16:20;9.00;99.90
57753;DHT22;43583;53.132;6.574;2022-12-20T04:18:47;9.00;99.90
57753;DHT22;43583;53.132;6.574;2022-12-20T04:21:13;9.00;99.90
57753;DHT22;43583;53.132;6.574;2022-12-20T04:23:40;9.00;99.90
57753;DHT22;43583;53.132;6.574;2022-12-20T04:26:07;9.00;99.90
57753;DHT22;43583;53.132;6.574;2022-12-20T04:28:33;9.00;99.90
57753;DHT22;43583;53.132;6.574;2022-12-20T04:30:59;9.00;99.90
57753;DHT22;43583;53.132;6.574;2022-12-20T04:33:25;9.00;99.90
57753;DHT22;43583;53.132;6.574;2022-12-20T04:35:52;9.00;99.90
57753;DHT22;43583;53.132;6.574;2022-12-20T04:38:19;9.00;99.90
57753;DHT22;43583;53.132;6.574;2022-12-20T04:40:48;9.00;99.90
57753;DHT22;43583;53.132;6.574;2022-12-20T04:43:14;9.00;99.90
57753;DHT22;43583;53.132;6.574;2022-12-20T04:45:39;9.00;99.90
57753;DHT22;43583;53.132;6.574;2022-12-20T04:48:05;9.00;99.90
57753;DHT22;43583;53.132;6.574;2022-12-20T04:50:31;9.10;99.90
57753;DHT22;43583;53.132;6.574;2022-12-20T04:52:56;9.10;99.90
57753;DHT22;43583;53.132;6.574;2022-12-20T04:55:40;9.10;99.90
57753;DHT22;43583;53.132;6.574;2022-12-20T04:58:06;9.20;99.90
57753;DHT22;43583;53.132;6.574;2022-12-20T05:00:33;9.20;99.90
57753;DHT22;43583;53.132;6.574;2022-12-20T05:02:59;9.20;99.90
57753;DHT22;43583;53.132;6.574;2022-12-20T05:05:25;9.30;99.90
57753;DHT22;43583;53.132;6.574;2022-12-20T05:07:51;9.30;99.90
57753;DHT22;43583;53.132;6.574;2022-12-20T05:10:17;9.30;99.90
57753;DHT22;43583;53.132;6.574;2022-12-20T05:12:42;9.30;99.90
57753;DHT22;43583;53.132;6.574;2022-12-20T05:15:09;9.40;99.90
57753;DHT22;43583;53.132;6.574;2022-12-20T05:17:35;9.30;99.90
57753;DHT22;43583;53.132;6.574;2022-12-20T05:20:01;9.40;99.90
57753;DHT22;43583;53.132;6.574;2022-12-20T05:22:26;9.40;99.90
57753;DHT22;43583;53.132;6.574;2022-12-20T05:25:11;9.40;99.90
57753;DHT22;43583;53.132;6.574;2022-12-20T05:27:55;9.40;99.90
57753;DHT22;43583;53.132;6.574;2022-12-20T05:30:21;9.40;99.90
57753;DHT22;43583;53.132;6.574;2022-12-20T05:32:47;9.40;99.90
57753;DHT22;43583;53.132;6.574;2022-12-20T05:35:13;9.40;99.90
57753;DHT22;43583;53.132;6.574;2022-12-20T05:37:38;9.40;99.90
57753;DHT22;43583;53.132;6.574;2022-12-20T05:40:05;9.50;99.90
57753;DHT22;43583;53.132;6.574;2022-12-20T05:42:30;9.50;99.90
57753;DHT22;43583;53.132;6.574;2022-12-20T05:44:56;9.50;99.90
57753;DHT22;43583;53.132;6.574;2022-12-20T05:47:22;9.50;99.90
57753;DHT22;43583;53.132;6.574;2022-12-20T05:49:47;9.50;99.90
57753;DHT22;43583;53.132;6.574;2022-12-20T05:52:13;9.60;99.90
57753;DHT22;43583;53.132;6.574;2022-12-20T05:54:38;9.60;99.90
57753;DHT22;43583;53.132;6.574;2022-12-20T05:57:04;9.60;99.90
57753;DHT22;43583;53.132;6.574;2022-12-20T05:59:29;9.60;99.90
57753;DHT22;43583;53.132;6.574;2022-12-20T06:01:55;9.60;99.90
57753;DHT22;43583;53.132;6.574;2022-12-20T06:04:21;9.60;99.90
57753;DHT22;43583;53.132;6.574;2022-12-20T06:06:46;9.70;99.90
57753;DHT22;43583;53.132;6.574;2022-12-20T06:09:12;9.60;99.90
57753;DHT22;43583;53.132;6.574;2022-12-20T06:11:37;9.70;99.90
57753;DHT22;43583;53.132;6.574;2022-12-20T06:14:03;9.70;99.90
57753;DHT22;43583;53.132;6.574;2022-12-20T06:16:29;9.70;99.90
57753;DHT22;43583;53.132;6.574;2022-12-20T06:18:54;9.70;99.90
57753;DHT22;43583;53.132;6.574;2022-12-20T06:21:21;9.70;99.90
57753;DHT22;43583;53.132;6.574;2022-12-20T06:23:47;9.70;99.90
57753;DHT22;43583;53.132;6.574;2022-12-20T06:26:12;9.70;99.90
57753;DHT22;43583;53.132;6.574;2022-12-20T06:28:38;9.70;99.90
57753;DHT22;43583;53.132;6.574;2022-12-20T06:31:10;9.70;99.90
57753;DHT22;43583;53.132;6.574;2022-12-20T06:33:36;9.70;99.90
57753;DHT22;43583;53.132;6.574;2022-12-20T06:36:02;9.70;99.90
57753;DHT22;43583;53.132;6.574;2022-12-20T06:38:28;9.70;99.90
57753;DHT22;43583;53.132;6.574;2022-12-20T06:40:53;9.80;99.90
57753;DHT22;43583;53.132;6.574;2022-12-20T06:43:19;9.80;99.90
57753;DHT22;43583;53.132;6.574;2022-12-20T06:45:44;9.80;99.90
57753;DHT22;43583;53.132;6.574;2022-12-20T06:48:10;9.80;99.90
57753;DHT22;43583;53.132;6.574;2022-12-20T06:50:39;9.80;99.90
57753;DHT22;43583;53.132;6.574;2022-12-20T06:53:05;9.80;99.90
57753;DHT22;43583;53.132;6.574;2022-12-20T06:55:31;9.80;99.90
57753;DHT22;43583;53.132;6.574;2022-12-20T06:57:56;9.80;99.90
57753;DHT22;43583;53.132;6.574;2022-12-20T07:00:22;9.80;99.90
57753;DHT22;43583;53.132;6.574;2022-12-20T07:02:48;9.80;99.90
57753;DHT22;43583;53.132;6.574;2022-12-20T07:05:14;9.80;99.90
57753;DHT22;43583;53.132;6.574;2022-12-20T07:07:39;9.80;99.90
57753;DHT22;43583;53.132;6.574;2022-12-20T07:10:06;9.80;99.90
57753;DHT22;43583;53.132;6.574;2022-12-20T07:12:31;9.80;99.90
57753;DHT22;43583;53.132;6.574;2022-12-20T07:14:58;9.80;99.90
57753;DHT22;43583;53.132;6.574;2022-12-20T07:17:24;9.80;99.90
57753;DHT22;43583;53.132;6.574;2022-12-20T07:19:49;9.80;99.90
57753;DHT22;43583;53.132;6.574;2022-12-20T07:22:15;9.70;99.90
57753;DHT22;43583;53.132;6.574;2022-12-20T07:24:41;9.80;99.90
57753;DHT22;43583;53.132;6.574;2022-12-20T07:27:06;9.70;99.90
57753;DHT22;43583;53.132;6.574;2022-12-20T07:29:32;9.80;99.90
57753;DHT22;43583;53.132;6.574;2022-12-20T07:31:58;9.80;99.90
57753;DHT22;43583;53.132;6.574;2022-12-20T07:34:23;9.80;99.90
57753;DHT22;43583;53.132;6.574;2022-12-20T07:36:49;9.80;99.90
57753;DHT22;43583;53.132;6.574;2022-12-20T07:39:15;9.80;99.90
57753;DHT22;43583;53.132;6.574;2022-12-20T07:41:40;9.80;99.90
57753;DHT22;43583;53.132;6.574;2022-12-20T07:44:06;9.80;99.90
57753;DHT22;43583;53.132;6.574;2022-12-20T07:46:32;9.80;99.90
57753;DHT22;43583;53.132;6.574;2022-12-20T07:48:58;9.80;99.90
57753;DHT22;43583;53.132;6.574;2022-12-20T07:51:30;9.80;99.90
57753;DHT22;43583;53.132;6.574;2022-12-20T07:54:04;9.80;99.90
57753;DHT22;43583;53.132;6.574;2022-12-20T07:56:32;9.80;99.90
57753;DHT22;43583;53.132;6.574;2022-12-20T07:59:00;9.90;99.90
57753;DHT22;43583;53.132;6.574;2022-12-20T08:01:27;9.90;99.90
57753;DHT22;43583;53.132;6.574;2022-12-20T08:03:59;9.90;99.90
57753;DHT22;43583;53.132;6.574;2022-12-20T08:06:25;9.90;99.90
57753;DHT22;43583;53.132;6.574;2022-12-20T08:08:54;9.90;99.90
57753;DHT22;43583;53.132;6.574;2022-12-20T08:11:22;9.90;99.90
57753;DHT22;43583;53.132;6.574;2022-12-20T08:13:49;9.90;99.90
57753;DHT22;43583;53.132;6.574;2022-12-20T08:16:16;10.00;99.90
57753;DHT22;43583;53.132;6.574;2022-12-20T08:18:41;10.00;99.90
57753;DHT22;43583;53.132;6.574;2022-12-20T08:21:07;10.00;99.90
57753;DHT22;43583;53.132;6.574;2022-12-20T08:23:33;10.00;99.90
57753;DHT22;43583;53.132;6.574;2022-12-20T08:26:00;10.10;99.90
57753;DHT22;43583;53.132;6.574;2022-12-20T08:28:26;10.10;99.90
57753;DHT22;43583;53.132;6.574;2022-12-20T08:30:51;10.10;99.90
57753;DHT22;43583;53.132;6.574;2022-12-20T08:33:17;10.10;99.90
57753;DHT22;43583;53.132;6.574;2022-12-20T08:35:42;10.10;99.90
57753;DHT22;43583;53.132;6.574;2022-12-20T08:38:08;10.10;99.90
57753;DHT22;43583;53.132;6.574;2022-12-20T08:40:33;10.10;99.90
57753;DHT22;43583;53.132;6.574;2022-12-20T08:42:59;10.10;99.90
57753;DHT22;43583;53.132;6.574;2022-12-20T08:45:24;10.00;99.90
57753;DHT22;43583;53.132;6.574;2022-12-20T08:47:50;10.00;99.90
57753;DHT22;43583;53.132;6.574;2022-12-20T08:50:15;10.00;99.90
57753;DHT22;43583;53.132;6.574;2022-12-20T08:52:41;10.00;99.90
57753;DHT22;43583;53.132;6.574;2022-12-20T08:55:07;10.10;99.90
57753;DHT22;43583;53.132;6.574;2022-12-20T08:57:33;10.10;99.90
57753;DHT22;43583;53.132;6.574;2022-12-20T08:59:59;10.10;99.90
57753;DHT22;43583;53.132;6.574;2022-12-20T09:02:25;10.10;99.90
57753;DHT22;43583;53.132;6.574;2022-12-20T09:04:50;10.10;99.90
57753;DHT22;43583;53.132;6.574;2022-12-20T09:07:17;10.20;99.90
57753;DHT22;43583;53.132;6.574;2022-12-20T09:09:42;10.20;99.90
57753;DHT22;43583;53.132;6.574;2022-12-20T09:12:08;10.20;99.90
57753;DHT22;43583;53.132;6.574;2022-12-20T09:14:33;10.20;99.90
57753;DHT22;43583;53.132;6.574;2022-12-20T09:16:59;10.20;99.90
57753;DHT22;43583;53.132;6.574;2022-12-20T09:19:24;10.20;99.90
57753;DHT22;43583;53.132;6.574;2022-12-20T09:21:50;10.20;99.90
57753;DHT22;43583;53.132;6.574;2022-12-20T09:24:15;10.30;99.90
57753;DHT22;43583;53.132;6.574;2022-12-20T09:26:41;10.30;99.90
57753;DHT22;43583;53.132;6.574;2022-12-20T09:29:07;10.30;99.90
57753;DHT22;43583;53.132;6.574;2022-12-20T09:31:32;10.30;99.90
57753;DHT22;43583;53.132;6.574;2022-12-20T09:33:59;10.30;99.90
57753;DHT22;43583;53.132;6.574;2022-12-20T09:36:27;10.40;99.90
57753;DHT22;43583;53.132;6.574;2022-12-20T09:38:53;10.40;99.90
57753;DHT22;43583;53.132;6.574;2022-12-20T09:41:31;10.50;99.90
57753;DHT22;43583;53.132;6.574;2022-12-20T09:43:57;10.50;99.90
57753;DHT22;43583;53.132;6.574;2022-12-20T09:46:25;10.50;99.90
57753;DHT22;43583;53.132;6.574;2022-12-20T09:48:52;10.60;99.90
57753;DHT22;43583;53.132;6.574;2022-12-20T09:53:59;10.60;99.90
57753;DHT22;43583;53.132;6.574;2022-12-20T09:56:31;10.60;99.90
57753;DHT22;43583;53.132;6.574;2022-12-20T09:59:03;10.60;99.90
57753;DHT22;43583;53.132;6.574;2022-12-20T10:01:32;10.60;99.90
57753;DHT22;43583;53.132;6.574;2022-12-20T10:04:11;10.60;99.90
57753;DHT22;43583;53.132;6.574;2022-12-20T10:12:08;10.70;99.90
57753;DHT22;43583;53.132;6.574;2022-12-20T10:14:59;10.70;99.90
57753;DHT22;43583;53.132;6.574;2022-12-20T10:22:47;10.60;99.90
57753;DHT22;43583;53.132;6.574;2022-12-20T10:25:22;10.70;99.90
57753;DHT22;43583;53.132;6.574;2022-12-20T10:27:50;10.70;99.90
57753;DHT22;43583;53.132;6.574;2022-12-20T10:30:20;10.70;99.90
57753;DHT22;43583;53.132;6.574;2022-12-20T10:32:49;10.70;99.90
57753;DHT22;43583;53.132;6.574;2022-12-20T10:35:27;10.70;99.90
57753;DHT22;43583;53.132;6.574;2022-12-20T10:38:13;10.70;99.90
57753;DHT22;43583;53.132;6.574;2022-12-20T10:43:21;10.80;99.90
57753;DHT22;43583;53.132;6.574;2022-12-20T10:46:00;10.80;99.90
57753;DHT22;43583;53.132;6.574;2022-12-20T10:48:31;10.80;99.90
57753;DHT22;43583;53.132;6.574;2022-12-20T10:51:01;10.80;99.90
57753;DHT22;43583;53.132;6.574;2022-12-20T10:53:28;10.80;99.90
57753;DHT22;43583;53.132;6.574;2022-12-20T10:56:11;10.90;99.90
57753;DHT22;43583;53.132;6.574;2022-12-20T10:58:38;11.00;99.90
57753;DHT22;43583;53.132;6.574;2022-12-20T11:01:17;11.00;99.90
57753;DHT22;43583;53.132;6.574;2022-12-20T11:03:58;11.00;99.90
57753;DHT22;43583;53.132;6.574;2022-12-20T11:12:32;10.90;99.90
57753;DHT22;43583;53.132;6.574;2022-12-20T11:14:34;10.90;99.90
57753;DHT22;43583;53.132;6.574;2022-12-20T11:17:05;10.80;99.90
57753;DHT22;43583;53.132;6.574;2022-12-20T11:19:56;10.80;99.90
57753;DHT22;43583;53.132;6.574;2022-12-20T11:25:33;10.80;99.90
57753;DHT22;43583;53.132;6.574;2022-12-20T11:28:26;10.70;99.90
57753;DHT22;43583;53.132;6.574;2022-12-20T11:31:16;10.70;99.90
57753;DHT22;43583;53.132;6.574;2022-12-20T11:34:12;10.70;99.90
57753;DHT22;43583;53.132;6.574;2022-12-20T11:37:02;10.70;99.90
57753;DHT22;43583;53.132;6.574;2022-12-20T11:39:34;10.70;99.90
57753;DHT22;43583;53.132;6.574;2022-12-20T11:48:02;10.60;99.90
57753;DHT22;43583;53.132;6.574;2022-12-20T11:56:16;10.60;99.90
57753;DHT22;43583;53.132;6.574;2022-12-20T11:58:50;10.60;99.90
57753;DHT22;43583;53.132;6.574;2022-12-20T12:01:39;10.50;99.90
57753;DHT22;43583;53.132;6.574;2022-12-20T12:04:13;10.50;99.90
57753;DHT22;43583;53.132;6.574;2022-12-20T12:06:55;10.50;99.90
57753;DHT22;43583;53.132;6.574;2022-12-20T12:09:35;10.50;99.90
57753;DHT22;43583;53.132;6.574;2022-12-20T12:12:09;10.50;99.90
57753;DHT22;43583;53.132;6.574;2022-12-20T12:17:08;10.50;99.90
57753;DHT22;43583;53.132;6.574;2022-12-20T12:19:40;10.40;99.90
57753;DHT22;43583;53.132;6.574;2022-12-20T12:22:16;10.50;99.90
57753;DHT22;43583;53.132;6.574;2022-12-20T12:24:47;10.40;99.90
57753;DHT22;43583;53.132;6.574;2022-12-20T12:27:26;10.50;99.90
57753;DHT22;43583;53.132;6.574;2022-12-20T12:29:53;10.50;99.90
57753;DHT22;43583;53.132;6.574;2022-12-20T12:32:45;10.40;99.90
57753;DHT22;43583;53.132;6.574;2022-12-20T12:38:22;10.40;99.90
57753;DHT22;43583;53.132;6.574;2022-12-20T12:43:46;10.40;99.90
57753;DHT22;43583;53.132;6.574;2022-12-20T12:46:31;10.40;99.90
57753;DHT22;43583;53.132;6.574;2022-12-20T12:51:41;10.40;99.90
57753;DHT22;43583;53.132;6.574;2022-12-20T12:54:21;10.40;99.90
57753;DHT22;43583;53.132;6.574;2022-12-20T12:56:49;10.40;99.90
57753;DHT22;43583;53.132;6.574;2022-12-20T13:09:58;10.40;99.90
57753;DHT22;43583;53.132;6.574;2022-12-20T13:17:58;10.40;99.90
57753;DHT22;43583;53.132;6.574;2022-12-20T13:20:34;10.40;99.90
57753;DHT22;43583;53.132;6.574;2022-12-20T13:25:56;10.40;99.90
57753;DHT22;43583;53.132;6.574;2022-12-20T13:39:45;10.40;99.90
57753;DHT22;43583;53.132;6.574;2022-12-20T13:41:47;10.40;99.90
57753;DHT22;43583;53.132;6.574;2022-12-20T13:44:23;10.40;99.90
57753;DHT22;43583;53.132;6.574;2022-12-20T13:47:02;10.40;99.90
57753;DHT22;43583;53.132;6.574;2022-12-20T13:49:37;10.40;99.90
57753;DHT22;43583;53.132;6.574;2022-12-20T13:52:29;10.40;99.90
57753;DHT22;43583;53.132;6.574;2022-12-20T13:54:58;10.40;99.90
57753;DHT22;43583;53.132;6.574;2022-12-20T13:57:31;10.40;99.90
57753;DHT22;43583;53.132;6.574;2022-12-20T13:59:59;10.40;99.90
57753;DHT22;43583;53.132;6.574;2022-12-20T14:02:29;10.40;99.90
57753;DHT22;43583;53.132;6.574;2022-12-20T14:07:38;10.40;99.90
57753;DHT22;43583;53.132;6.574;2022-12-20T14:10:24;10.40;99.90
57753;DHT22;43583;53.132;6.574;2022-12-20T14:12:50;10.40;99.90
57753;DHT22;43583;53.132;6.574;2022-12-20T14:15:23;10.40;99.90
57753;DHT22;43583;53.132;6.574;2022-12-20T14:17:49;10.40;99.90
57753;DHT22;43583;53.132;6.574;2022-12-20T14:20:17;10.40;99.90
57753;DHT22;43583;53.132;6.574;2022-12-20T14:25:19;10.40;99.90
57753;DHT22;43583;53.132;6.574;2022-12-20T14:27:47;10.40;99.90
57753;DHT22;43583;53.132;6.574;2022-12-20T14:30:26;10.40;99.90
57753;DHT22;43583;53.132;6.574;2022-12-20T14:32:53;10.40;99.90
57753;DHT22;43583;53.132;6.574;2022-12-20T14:35:20;10.40;99.90
57753;DHT22;43583;53.132;6.574;2022-12-20T14:37:57;10.40;99.90
57753;DHT22;43583;53.132;6.574;2022-12-20T14:40:25;10.50;99.90
57753;DHT22;43583;53.132;6.574;2022-12-20T14:42:51;10.50;99.90
57753;DHT22;43583;53.132;6.574;2022-12-20T14:45:20;10.50;99.90
57753;DHT22;43583;53.132;6.574;2022-12-20T14:48:04;10.50;99.90
57753;DHT22;43583;53.132;6.574;2022-12-20T14:50:36;10.50;99.90
57753;DHT22;43583;53.132;6.574;2022-12-20T14:53:03;10.50;99.90
57753;DHT22;43583;53.132;6.574;2022-12-20T14:55:34;10.50;99.90
57753;DHT22;43583;53.132;6.574;2022-12-20T14:58:01;10.40;99.90
57753;DHT22;43583;53.132;6.574;2022-12-20T15:00:32;10.50;99.90
57753;DHT22;43583;53.132;6.574;2022-12-20T15:03:02;10.50;99.90
57753;DHT22;43583;53.132;6.574;2022-12-20T15:08:23;10.40;99.90
57753;DHT22;43583;53.132;6.574;2022-12-20T15:16:11;10.40;99.90
57753;DHT22;43583;53.132;6.574;2022-12-20T15:18:38;10.50;99.90
57753;DHT22;43583;53.132;6.574;2022-12-20T15:21:09;10.50;99.90
57753;DHT22;43583;53.132;6.574;2022-12-20T15:23:41;10.50;99.90
57753;DHT22;43583;53.132;6.574;2022-12-20T15:26:15;10.50;99.90
57753;DHT22;43583;53.132;6.574;2022-12-20T15:28:42;10.40;99.90
57753;DHT22;43583;53.132;6.574;2022-12-20T15:31:16;10.50;99.90
57753;DHT22;43583;53.132;6.574;2022-12-20T15:33:43;10.50;99.90
57753;DHT22;43583;53.132;6.574;2022-12-20T15:36:17;10.40;99.90
57753;DHT22;43583;53.132;6.574;2022-12-20T15:38:43;10.40;99.90
57753;DHT22;43583;53.132;6.574;2022-12-20T15:41:23;10.40;99.90
57753;DHT22;43583;53.132;6.574;2022-12-20T15:43:53;10.40;99.90
57753;DHT22;43583;53.132;6.574;2022-12-20T15:46:19;10.40;99.90
57753;DHT22;43583;53.132;6.574;2022-12-20T15:48:44;10.40;99.90
57753;DHT22;43583;53.132;6.574;2022-12-20T15:51:18;10.40;99.90
57753;DHT22;43583;53.132;6.574;2022-12-20T15:53:45;10.40;99.90
57753;DHT22;43583;53.132;6.574;2022-12-20T15:56:22;10.40;99.90
57753;DHT22;43583;53.132;6.574;2022-12-20T15:58:48;10.40;99.90
57753;DHT22;43583;53.132;6.574;2022-12-20T16:01:20;10.40;99.90
57753;DHT22;43583;53.132;6.574;2022-12-20T16:03:46;10.40;99.90
57753;DHT22;43583;53.132;6.574;2022-12-20T16:06:12;10.40;99.90
57753;DHT22;43583;53.132;6.574;2022-12-20T16:08:39;10.40;99.90
57753;DHT22;43583;53.132;6.574;2022-12-20T16:11:06;10.40;99.90
57753;DHT22;43583;53.132;6.574;2022-12-20T16:13:38;10.40;99.90
57753;DHT22;43583;53.132;6.574;2022-12-20T16:16:03;10.40;99.90
57753;DHT22;43583;53.132;6.574;2022-12-20T16:18:30;10.40;99.90
57753;DHT22;43583;53.132;6.574;2022-12-20T16:20:56;10.30;99.90
57753;DHT22;43583;53.132;6.574;2022-12-20T16:23:21;10.40;99.90
57753;DHT22;43583;53.132;6.574;2022-12-20T16:25:48;10.40;99.90
57753;DHT22;43583;53.132;6.574;2022-12-20T16:28:15;10.30;99.90
57753;DHT22;43583;53.132;6.574;2022-12-20T16:30:40;10.30;99.90
57753;DHT22;43583;53.132;6.574;2022-12-20T16:33:09;10.30;99.90
57753;DHT22;43583;53.132;6.574;2022-12-20T16:35:36;10.30;99.90
57753;DHT22;43583;53.132;6.574;2022-12-20T16:38:02;10.30;99.90
57753;DHT22;43583;53.132;6.574;2022-12-20T16:40:31;10.30;99.90
57753;DHT22;43583;53.132;6.574;2022-12-20T16:42:59;10.30;99.90
57753;DHT22;43583;53.132;6.574;2022-12-20T16:45:27;10.30;99.90
57753;DHT22;43583;53.132;6.574;2022-12-20T16:47:53;10.30;99.90
57753;DHT22;43583;53.132;6.574;2022-12-20T16:50:21;10.30;99.90
57753;DHT22;43583;53.132;6.574;2022-12-20T16:52:47;10.30;99.90
57753;DHT22;43583;53.132;6.574;2022-12-20T16:55:26;10.30;99.90
57753;DHT22;43583;53.132;6.574;2022-12-20T16:57:52;10.30;99.90
57753;DHT22;43583;53.132;6.574;2022-12-20T17:00:20;10.30;99.90
57753;DHT22;43583;53.132;6.574;2022-12-20T17:02:47;10.30;99.90
57753;DHT22;43583;53.132;6.574;2022-12-20T17:05:22;10.20;99.90
57753;DHT22;43583;53.132;6.574;2022-12-20T17:07:48;10.30;99.90
57753;DHT22;43583;53.132;6.574;2022-12-20T17:10:13;10.20;99.90
57753;DHT22;43583;53.132;6.574;2022-12-20T17:12:39;10.20;99.90
57753;DHT22;43583;53.132;6.574;2022-12-20T17:15:05;10.20;99.90
57753;DHT22;43583;53.132;6.574;2022-12-20T17:17:32;10.20;99.90
57753;DHT22;43583;53.132;6.574;2022-12-20T17:19:57;10.20;99.90
57753;DHT22;43583;53.132;6.574;2022-12-20T17:22:24;10.20;99.90
57753;DHT22;43583;53.132;6.574;2022-12-20T17:24:50;10.30;99.90
57753;DHT22;43583;53.132;6.574;2022-12-20T17:27:15;10.20;99.90
57753;DHT22;43583;53.132;6.574;2022-12-20T17:29:41;10.20;99.90
57753;DHT22;43583;53.132;6.574;2022-12-20T17:32:19;10.20;99.90